createdAt,value
2019-02-19T00:00:35.452Z,99.90
2019-02-19T00:03:25.907Z,99.90
2019-02-19T00:06:16.571Z,99.90
2019-02-19T00:09:08.081Z,99.90
2019-02-19T00:11:58.891Z,99.90
2019-02-19T00:14:49.431Z,99.90
2019-02-19T00:17:40.812Z,99.90
2019-02-19T00:20:30.692Z,99.90
2019-02-19T00:23:21.371Z,99.90
2019-02-19T00:26:19.551Z,99.90
2019-02-19T00:29:10.493Z,99.90
2019-02-19T00:32:00.736Z,99.90
2019-02-19T00:34:51.172Z,99.90
2019-02-19T00:37:41.732Z,99.90
2019-02-19T00:40:31.932Z,99.90
2019-02-19T00:43:33.832Z,99.90
2019-02-19T00:46:25.028Z,99.90
2019-02-19T00:49:15.852Z,99.90
2019-02-19T00:52:06.292Z,99.90
2019-02-19T00:54:56.572Z,99.90
2019-02-19T00:57:47.012Z,99.90
2019-02-19T01:00:37.332Z,99.90
2019-02-19T01:03:28.432Z,99.90
2019-02-19T01:06:18.412Z,99.90
2019-02-19T01:09:11.453Z,99.90
2019-02-19T01:12:01.651Z,99.90
2019-02-19T01:14:52.092Z,99.90
2019-02-19T01:17:42.495Z,99.90
2019-02-19T01:20:32.323Z,99.90
2019-02-19T01:23:23.832Z,99.90
2019-02-19T01:26:14.111Z,99.90
2019-02-19T01:29:04.572Z,99.90
2019-02-19T01:31:54.832Z,99.90
2019-02-19T01:34:44.842Z,99.90
2019-02-19T01:37:35.609Z,99.90
2019-02-19T01:40:26.652Z,99.90
2019-02-19T01:43:16.789Z,99.90
2019-02-19T01:46:07.292Z,99.90
2019-02-19T01:48:59.252Z,99.90
2019-02-19T01:51:49.552Z,99.90
2019-02-19T01:54:41.211Z,99.90
2019-02-19T01:57:31.492Z,99.90
2019-02-19T02:00:22.362Z,99.90
2019-02-19T02:03:14.272Z,99.90
2019-02-19T02:06:05.613Z,99.90
2019-02-19T02:08:56.571Z,99.90
2019-02-19T02:11:46.893Z,99.90
2019-02-19T02:14:37.052Z,99.90
2019-02-19T02:17:27.113Z,99.90
2019-02-19T02:20:16.633Z,99.90
2019-02-19T02:23:07.153Z,99.90
2019-02-19T02:25:57.752Z,99.90
2019-02-19T02:28:48.173Z,99.90
2019-02-19T02:31:39.618Z,99.90
2019-02-19T02:34:29.891Z,99.90
2019-02-19T02:37:20.251Z,99.90
2019-02-19T02:40:11.954Z,99.90
2019-02-19T02:43:05.071Z,99.90
2019-02-19T02:45:55.331Z,99.90
2019-02-19T02:48:45.771Z,99.90
2019-02-19T02:51:36.571Z,99.90
2019-02-19T02:54:26.646Z,99.90
2019-02-19T02:57:17.052Z,99.90
2019-02-19T03:03:30.818Z,99.90
2019-02-19T03:06:33.815Z,99.90
2019-02-19T03:09:24.438Z,99.90
2019-02-19T03:12:14.679Z,99.90
2019-02-19T03:15:06.496Z,99.90
2019-02-19T03:17:58.181Z,99.90
2019-02-19T03:20:48.518Z,99.90
2019-02-19T03:23:38.835Z,99.90
2019-02-19T03:26:28.954Z,99.90
2019-02-19T03:29:19.634Z,99.90
2019-02-19T03:32:09.660Z,99.90
2019-02-19T03:35:00.439Z,99.90
2019-02-19T03:37:50.774Z,99.90
2019-02-19T03:40:40.904Z,99.90
2019-02-19T03:43:31.966Z,99.90
2019-02-19T03:46:23.615Z,99.90
2019-02-19T03:49:14.375Z,99.90
2019-02-19T03:52:04.735Z,99.90
2019-02-19T03:54:54.684Z,99.90
2019-02-19T03:57:45.037Z,99.90
2019-02-19T04:00:35.695Z,99.90
2019-02-19T04:03:26.034Z,99.90
2019-02-19T04:06:16.206Z,99.90
2019-02-19T04:09:07.282Z,99.90
2019-02-19T04:11:57.696Z,99.90
2019-02-19T04:14:47.938Z,99.90
2019-02-19T04:17:38.390Z,99.90
2019-02-19T04:20:29.168Z,99.90
2019-02-19T04:23:19.934Z,99.90
2019-02-19T04:26:10.515Z,99.90
2019-02-19T04:29:01.694Z,99.90
2019-02-19T04:31:51.684Z,99.90
2019-02-19T04:34:41.896Z,99.90
2019-02-19T04:37:32.734Z,99.90
2019-02-19T04:40:23.101Z,99.90
2019-02-19T04:43:13.573Z,99.90
2019-02-19T04:46:04.735Z,99.90
2019-02-19T04:48:54.994Z,99.90
2019-02-19T04:51:45.878Z,99.90
2019-02-19T04:54:36.414Z,99.90
2019-02-19T04:57:27.856Z,99.90
2019-02-19T05:00:17.894Z,99.90
2019-02-19T05:03:08.393Z,99.90
2019-02-19T05:05:59.298Z,99.90
2019-02-19T05:08:50.519Z,99.90
2019-02-19T05:11:40.759Z,99.90
2019-02-19T05:14:30.976Z,99.90
2019-02-19T05:17:22.275Z,99.90
2019-02-19T05:20:12.661Z,99.90
2019-02-19T05:23:03.268Z,99.90
2019-02-19T05:25:53.875Z,99.90
2019-02-19T05:28:44.116Z,99.90
2019-02-19T05:31:34.361Z,99.90
2019-02-19T05:34:26.277Z,99.90
2019-02-19T05:37:17.056Z,99.90
2019-02-19T05:40:07.295Z,99.90
2019-02-19T05:42:57.730Z,99.90
2019-02-19T05:45:47.776Z,99.90
2019-02-19T05:48:37.415Z,99.90
2019-02-19T05:51:26.832Z,99.90
2019-02-19T05:54:17.274Z,99.90
2019-02-19T05:57:07.634Z,99.90
2019-02-19T05:59:58.054Z,99.90
2019-02-19T06:02:48.335Z,99.90
2019-02-19T06:05:39.154Z,99.90
2019-02-19T06:08:29.753Z,99.90
2019-02-19T06:11:20.576Z,99.90
2019-02-19T06:14:10.701Z,99.90
2019-02-19T06:17:01.355Z,99.90
2019-02-19T06:19:52.034Z,99.90
2019-02-19T06:22:42.257Z,99.90
2019-02-19T06:25:32.734Z,99.90
2019-02-19T06:28:23.295Z,99.90
2019-02-19T06:31:13.714Z,99.90
2019-02-19T06:34:04.855Z,99.90
2019-02-19T06:36:55.294Z,99.90
2019-02-19T06:39:45.057Z,99.90
2019-02-19T06:42:35.135Z,99.90
2019-02-19T06:45:26.014Z,99.90
2019-02-19T06:48:16.715Z,99.90
2019-02-19T06:51:07.134Z,99.90
2019-02-19T06:53:57.374Z,99.90
2019-02-19T06:56:47.525Z,99.90
2019-02-19T06:59:38.071Z,99.90
2019-02-19T07:02:43.494Z,99.90
2019-02-19T07:05:34.334Z,99.90
2019-02-19T07:08:24.928Z,99.90
2019-02-19T07:11:15.459Z,99.90
2019-02-19T07:14:06.335Z,99.90
2019-02-19T07:16:57.375Z,99.90
2019-02-19T07:19:48.353Z,99.90
2019-02-19T07:22:38.357Z,99.90
2019-02-19T07:25:29.235Z,99.90
2019-02-19T07:28:19.854Z,99.90
2019-02-19T07:31:10.254Z,99.90
2019-02-19T07:34:00.574Z,99.90
2019-02-19T07:36:51.135Z,99.90
2019-02-19T07:39:41.715Z,99.90
2019-02-19T07:42:33.433Z,99.90
2019-02-19T07:45:24.096Z,99.90
2019-02-19T07:48:15.354Z,99.90
2019-02-19T07:51:06.836Z,99.90
2019-02-19T07:53:57.376Z,99.90
2019-02-19T07:56:47.614Z,99.90
2019-02-19T07:59:38.315Z,99.90
2019-02-19T08:02:28.997Z,99.90
2019-02-19T08:05:19.613Z,99.90
2019-02-19T08:08:10.253Z,99.90
2019-02-19T08:11:00.495Z,99.90
2019-02-19T08:13:52.254Z,99.90
2019-02-19T08:16:42.087Z,97.50
2019-02-19T08:19:32.453Z,93.40
2019-02-19T08:22:23.195Z,91.00
2019-02-19T08:25:14.046Z,86.70
2019-02-19T08:28:04.730Z,80.20
2019-02-19T08:30:55.974Z,86.10
2019-02-19T08:33:45.972Z,92.30
2019-02-19T08:36:36.356Z,96.10
2019-02-19T08:39:26.337Z,99.00
2019-02-19T08:42:17.235Z,99.90
2019-02-19T08:45:08.094Z,99.90
2019-02-19T08:47:58.616Z,99.90
2019-02-19T08:50:48.935Z,99.90
2019-02-19T08:53:40.057Z,99.90
2019-02-19T08:56:30.036Z,99.90
2019-02-19T08:59:20.574Z,99.90
2019-02-19T09:02:11.795Z,99.90
2019-02-19T09:05:02.355Z,99.90
2019-02-19T09:07:52.935Z,99.90
2019-02-19T09:10:43.157Z,99.90
2019-02-19T09:13:34.015Z,99.90
2019-02-19T09:16:24.275Z,99.90
2019-02-19T09:19:15.543Z,97.90
2019-02-19T09:22:06.674Z,97.40
2019-02-19T09:24:58.495Z,99.70
2019-02-19T09:27:48.974Z,99.90
2019-02-19T09:30:39.725Z,99.90
2019-02-19T09:33:29.816Z,99.90
2019-02-19T09:36:20.094Z,99.90
2019-02-19T09:39:11.030Z,99.90
2019-02-19T09:42:01.715Z,99.90
2019-02-19T09:44:52.415Z,99.90
2019-02-19T09:47:42.935Z,97.20
2019-02-19T09:50:33.215Z,96.20
2019-02-19T09:53:23.083Z,97.50
2019-02-19T09:56:13.050Z,97.00
2019-02-19T09:59:07.475Z,96.40
2019-02-19T10:01:58.034Z,97.10
2019-02-19T10:04:48.020Z,94.60
2019-02-19T10:07:38.516Z,94.80
2019-02-19T10:10:29.394Z,91.90
2019-02-19T10:13:19.635Z,85.20
2019-02-19T10:16:10.515Z,79.50
2019-02-19T10:19:00.953Z,76.00
2019-02-19T10:21:50.914Z,76.30
2019-02-19T10:24:42.834Z,75.40
2019-02-19T10:27:33.239Z,75.30
2019-02-19T10:30:23.633Z,75.80
2019-02-19T10:33:14.394Z,76.70
2019-02-19T10:36:04.754Z,73.10
2019-02-19T10:38:54.886Z,68.90
2019-02-19T10:41:45.354Z,64.50
2019-02-19T10:44:36.436Z,62.00
2019-02-19T10:47:26.625Z,58.70
2019-02-19T10:50:16.639Z,55.90
2019-02-19T10:53:07.174Z,54.70
2019-02-19T10:55:57.483Z,53.30
2019-02-19T10:58:47.814Z,51.90
2019-02-19T11:01:38.534Z,53.00
2019-02-19T11:04:28.635Z,52.10
2019-02-19T11:07:19.615Z,51.20
2019-02-19T11:10:11.016Z,47.90
2019-02-19T11:13:03.293Z,47.70
2019-02-19T11:15:54.406Z,47.10
2019-02-19T11:18:44.813Z,47.00
2019-02-19T11:21:35.221Z,44.80
2019-02-19T11:24:26.495Z,44.90
2019-02-19T11:27:16.921Z,43.10
2019-02-19T11:30:09.294Z,43.00
2019-02-19T11:33:00.098Z,43.20
2019-02-19T11:35:50.654Z,43.10
2019-02-19T11:38:41.222Z,44.70
2019-02-19T11:41:31.683Z,46.00
2019-02-19T11:44:22.537Z,47.00
2019-02-19T11:47:13.274Z,48.50
2019-02-19T11:50:02.870Z,49.10
2019-02-19T11:52:54.014Z,48.40
2019-02-19T11:55:45.039Z,49.00
2019-02-19T11:58:35.495Z,46.90
2019-02-19T12:01:25.704Z,45.20
2019-02-19T12:04:16.174Z,42.00
2019-02-19T12:07:07.955Z,40.30
2019-02-19T12:09:58.515Z,41.10
2019-02-19T12:12:48.746Z,40.60
2019-02-19T12:15:39.018Z,40.30
2019-02-19T12:18:29.376Z,40.10
2019-02-19T12:21:19.831Z,38.20
2019-02-19T12:24:09.782Z,38.00
2019-02-19T12:27:00.116Z,40.10
2019-02-19T12:29:50.674Z,40.80
2019-02-19T12:32:40.916Z,40.00
2019-02-19T12:35:31.914Z,40.70
2019-02-19T12:38:22.014Z,41.90
2019-02-19T12:41:12.574Z,43.20
2019-02-19T12:44:03.179Z,43.00
2019-02-19T12:46:54.015Z,44.20
2019-02-19T12:49:44.581Z,43.90
2019-02-19T12:52:34.775Z,43.50
2019-02-19T12:55:24.754Z,43.20
2019-02-19T12:58:14.996Z,42.20
2019-02-19T13:01:06.176Z,39.90
2019-02-19T13:03:57.054Z,38.80
2019-02-19T13:06:48.573Z,38.10
2019-02-19T13:09:38.795Z,37.30
2019-02-19T13:12:28.982Z,37.70
2019-02-19T13:15:19.167Z,35.90
2019-02-19T13:18:10.042Z,35.50
2019-02-19T13:21:00.754Z,35.50
2019-02-19T13:23:51.315Z,35.10
2019-02-19T13:26:41.634Z,33.30
2019-02-19T13:29:31.976Z,34.40
2019-02-19T13:32:22.796Z,33.20
2019-02-19T13:35:13.435Z,33.70
2019-02-19T13:38:04.436Z,34.10
2019-02-19T13:40:54.735Z,33.70
2019-02-19T13:43:45.658Z,34.40
2019-02-19T13:46:36.135Z,33.80
2019-02-19T13:49:26.596Z,33.80
2019-02-19T13:52:35.574Z,34.10
2019-02-19T13:55:29.694Z,35.50
2019-02-19T13:58:21.503Z,34.10
2019-02-19T14:01:11.843Z,34.70
2019-02-19T14:04:02.057Z,34.00
2019-02-19T14:06:53.374Z,34.40
2019-02-19T14:09:43.415Z,34.10
2019-02-19T14:12:33.395Z,34.80
2019-02-19T14:15:34.674Z,34.30
2019-02-19T14:18:43.837Z,33.70
2019-02-19T14:21:58.020Z,33.40
2019-02-19T14:25:04.635Z,33.80
2019-02-19T14:28:22.557Z,34.20
2019-02-19T14:31:38.372Z,34.80
2019-02-19T14:34:51.127Z,35.80
2019-02-19T14:38:03.893Z,36.00
2019-02-19T14:41:11.995Z,35.90
2019-02-19T14:44:31.954Z,36.40
2019-02-19T14:47:51.694Z,37.10
2019-02-19T14:51:03.314Z,38.40
2019-02-19T14:54:19.035Z,39.70
2019-02-19T14:57:28.332Z,39.90
2019-02-19T15:00:36.437Z,40.40
2019-02-19T15:03:45.535Z,41.50
2019-02-19T15:06:54.763Z,42.30
2019-02-19T15:09:56.394Z,43.70
2019-02-19T15:13:11.134Z,45.10
2019-02-19T15:16:23.114Z,45.50
2019-02-19T15:19:42.057Z,45.80
2019-02-19T15:22:57.498Z,45.80
2019-02-19T15:26:02.536Z,45.00
2019-02-19T15:29:11.942Z,45.30
2019-02-19T15:32:30.776Z,45.60
2019-02-19T15:35:45.934Z,46.20
2019-02-19T15:39:01.070Z,47.60
2019-02-19T15:42:16.082Z,49.20
2019-02-19T15:45:24.398Z,50.70
2019-02-19T15:48:33.434Z,51.80
2019-02-19T15:51:48.475Z,53.10
2019-02-19T15:55:16.834Z,53.40
2019-02-19T15:58:23.936Z,54.60
2019-02-19T16:01:36.495Z,56.40
2019-02-19T16:05:03.776Z,57.70
2019-02-19T16:08:13.074Z,58.60
2019-02-19T16:11:11.096Z,59.60
2019-02-19T16:14:23.674Z,60.70
2019-02-19T16:17:31.869Z,61.90
2019-02-19T16:20:42.614Z,63.20
2019-02-19T16:24:07.994Z,63.60
2019-02-19T16:27:15.772Z,65.00
2019-02-19T16:30:20.295Z,65.60
2019-02-19T16:33:36.897Z,66.20
2019-02-19T16:36:49.454Z,67.90
2019-02-19T16:39:56.608Z,69.50
2019-02-19T16:43:10.656Z,70.70
2019-02-19T16:46:19.795Z,71.50
2019-02-19T16:49:35.414Z,72.60
2019-02-19T16:52:36.940Z,73.80
2019-02-19T16:55:49.227Z,75.70
2019-02-19T16:59:07.655Z,76.70
2019-02-19T17:02:15.652Z,78.40
2019-02-19T17:05:34.694Z,79.70
2019-02-19T17:08:41.254Z,81.30
2019-02-19T17:11:42.698Z,82.80
2019-02-19T17:14:50.677Z,84.50
2019-02-19T17:18:08.260Z,86.10
2019-02-19T17:21:05.555Z,88.10
2019-02-19T17:24:12.254Z,90.40
2019-02-19T17:27:24.455Z,91.20
2019-02-19T17:30:32.722Z,92.10
2019-02-19T17:33:41.007Z,93.60
2019-02-19T17:36:56.278Z,94.70
2019-02-19T17:40:19.594Z,95.50
2019-02-19T17:43:37.334Z,96.80
2019-02-19T17:46:52.570Z,97.90
2019-02-19T17:50:04.317Z,99.00
2019-02-19T17:53:14.910Z,99.90
2019-02-19T17:56:33.861Z,99.90
2019-02-19T17:59:41.823Z,99.90
2019-02-19T18:03:06.274Z,99.90
2019-02-19T18:06:21.822Z,99.90
2019-02-19T18:09:39.855Z,99.90
2019-02-19T18:12:48.654Z,99.90
2019-02-19T18:15:57.964Z,99.90
2019-02-19T18:18:49.776Z,99.90
2019-02-19T18:21:41.899Z,99.90
2019-02-19T18:24:32.676Z,99.90
2019-02-19T18:27:22.619Z,99.90
2019-02-19T18:30:13.774Z,99.90
2019-02-19T18:33:04.623Z,99.90
2019-02-19T18:35:54.604Z,99.90
2019-02-19T18:38:46.014Z,99.90
2019-02-19T18:41:36.674Z,99.90
2019-02-19T18:44:27.475Z,99.90
2019-02-19T18:47:18.044Z,99.90
2019-02-19T18:50:09.237Z,99.90
2019-02-19T18:53:00.124Z,99.90
2019-02-19T18:55:51.205Z,99.90
2019-02-19T18:58:41.920Z,99.90
2019-02-19T19:01:32.284Z,99.90
2019-02-19T19:04:22.071Z,99.90
2019-02-19T19:07:12.389Z,99.90
2019-02-19T19:10:02.842Z,99.90
2019-02-19T19:12:53.716Z,99.90
2019-02-19T19:15:44.832Z,99.90
2019-02-19T19:18:35.695Z,99.90
2019-02-19T19:21:26.590Z,99.90
2019-02-19T19:24:20.416Z,99.90
2019-02-19T19:27:10.907Z,99.90
2019-02-19T19:30:01.584Z,99.90
2019-02-19T19:32:52.424Z,99.90
2019-02-19T19:35:43.319Z,99.90
2019-02-19T19:38:33.536Z,99.90
2019-02-19T19:41:23.754Z,99.90
2019-02-19T19:44:13.874Z,99.90
2019-02-19T19:47:04.664Z,99.90
2019-02-19T19:49:54.814Z,99.90
2019-02-19T19:52:45.094Z,99.90
2019-02-19T19:55:35.954Z,99.90
2019-02-19T19:58:26.815Z,99.90
2019-02-19T20:01:17.079Z,99.90
2019-02-19T20:04:07.895Z,99.90
2019-02-19T20:06:58.494Z,99.90
2019-02-19T20:09:49.094Z,99.90
2019-02-19T20:12:39.775Z,99.90
2019-02-19T20:15:30.258Z,99.90
2019-02-19T20:18:20.503Z,99.90
2019-02-19T20:21:11.656Z,99.90
2019-02-19T20:24:02.412Z,99.90
2019-02-19T20:26:56.594Z,99.90
2019-02-19T20:29:52.195Z,99.90
2019-02-19T20:32:43.037Z,99.90
2019-02-19T20:35:33.247Z,99.90
2019-02-19T20:38:25.658Z,99.90
2019-02-19T20:41:16.075Z,99.90
2019-02-19T20:44:06.454Z,99.90
2019-02-19T20:46:57.726Z,99.90
2019-02-19T20:49:48.416Z,99.90
2019-02-19T20:52:38.541Z,99.90
2019-02-19T20:55:37.035Z,99.90
2019-02-19T20:58:23.308Z,99.90
2019-02-19T21:01:13.578Z,99.90
2019-02-19T21:04:04.715Z,99.90
2019-02-19T21:06:55.955Z,99.90
2019-02-19T21:09:48.155Z,99.90
2019-02-19T21:12:39.274Z,99.90
2019-02-19T21:15:33.798Z,99.90
2019-02-19T21:18:24.497Z,99.90
2019-02-19T21:21:14.668Z,99.90
2019-02-19T21:24:05.277Z,99.90
2019-02-19T21:26:57.383Z,99.90
2019-02-19T21:29:47.574Z,99.90
2019-02-19T21:32:37.994Z,99.90
2019-02-19T21:35:29.292Z,99.90
2019-02-19T21:38:19.793Z,99.90
2019-02-19T21:41:10.657Z,99.90
2019-02-19T21:44:01.236Z,99.90
2019-02-19T21:46:52.443Z,99.90
2019-02-19T21:49:43.316Z,99.90
2019-02-19T21:52:33.581Z,99.90
2019-02-19T21:55:23.834Z,99.90
2019-02-19T21:58:14.227Z,99.90
2019-02-19T22:01:05.078Z,99.90
2019-02-19T22:03:55.654Z,99.90
2019-02-19T22:06:45.454Z,99.90
2019-02-19T22:09:38.196Z,99.90
2019-02-19T22:12:28.474Z,99.90
2019-02-19T22:15:19.953Z,99.90
2019-02-19T22:18:10.175Z,99.90
2019-02-19T22:21:28.253Z,99.90
2019-02-19T22:24:35.400Z,99.90
2019-02-19T22:27:25.164Z,99.90
2019-02-19T22:30:15.650Z,99.90
2019-02-19T22:33:06.554Z,99.90
2019-02-19T22:35:56.898Z,99.90
2019-02-19T22:38:47.073Z,99.90
2019-02-19T22:41:38.176Z,99.90
2019-02-19T22:44:28.454Z,99.90
2019-02-19T22:47:18.997Z,99.90
2019-02-19T22:50:10.176Z,99.90
2019-02-19T22:53:01.055Z,99.90
2019-02-19T22:55:55.675Z,99.90
2019-02-19T22:58:45.696Z,99.90
2019-02-19T23:01:42.073Z,99.90
2019-02-19T23:04:33.003Z,99.90
2019-02-19T23:07:23.415Z,99.90
2019-02-19T23:10:14.175Z,99.90
2019-02-19T23:13:04.581Z,99.90
2019-02-19T23:15:54.913Z,99.90
2019-02-19T23:18:45.076Z,99.90
2019-02-19T23:21:35.614Z,99.90
2019-02-19T23:24:26.177Z,99.90
2019-02-19T23:27:16.531Z,99.90
2019-02-19T23:30:07.302Z,99.90
2019-02-19T23:32:58.494Z,99.90
2019-02-19T23:35:52.900Z,99.90
2019-02-19T23:38:43.453Z,99.90
2019-02-19T23:41:34.041Z,99.90
2019-02-19T23:44:24.408Z,99.90
2019-02-19T23:47:15.154Z,99.90
2019-02-19T23:50:05.874Z,99.90
2019-02-19T23:52:56.817Z,99.90
2019-02-19T23:55:48.133Z,99.90
2019-02-19T23:58:38.655Z,99.90
